New Vision — 3FSQ9 — position and weather

sailwx.info

Track history (hours):
 
Tides and Currents Weather Stations Pressure Air Temp Water Temp Dewpoint Dewpoint Depression Visibility Wind Speed Wind Dir Waves Ship Positions

New Vision

Last reported at 2014-Nov-15 13:31 UTC. Time now 2014-Nov-23 18:48 UTC.
Position N 22°10' E 114°07'.
Warning: this ship's position is 8 days out of date.

Length 189 m; draft 6.2 m.

Type: Cargo ship. MMSI: 357764000.

Date/timePositionNaut miles runAvg speedWind from/ knotsBaromVisibWave heightAir tempDewpointWater temp
2014-Nov-15 13:31N 22°10' E 114°07'6 3.9
2014-Nov-15 12:03N 22°08' E 114°01'510.9
2014-Nov-15 11:33N 22°05' E 113°57'6 6.1
2014-Nov-15 10:33N 22°08' E 113°51'1212.1
2014-Nov-15 09:33N 22°19' E 113°48'1512.3
2014-Nov-15 08:20N 22°34' E 113°43'9 4.8
2014-Nov-15 06:30N 22°42' E 113°39'0 0.0
2014-Nov-15 05:18N 22°42' E 113°39'0 0.0
2014-Nov-15 04:06N 22°42' E 113°39'0 0.0
2014-Nov-14 19:12N 22°42' E 113°39'0 0.0
2014-Nov-14 18:18N 22°42' E 113°39'0 0.0
2014-Nov-14 17:30N 22°42' E 113°39'0 0.0
2014-Nov-14 16:12N 22°42' E 113°39'0 0.0
2014-Nov-14 15:24N 22°42' E 113°39'1 0.1
2014-Nov-14 03:03N 22°41' E 113°40'0 0.0
2014-Nov-13 21:33N 22°41' E 113°40'0 0.0
2014-Nov-13 20:21N 22°41' E 113°40'  
2014-Nov-11 08:27N 22°41' E 113°40'  
2014-Nov-09 03:18N 22°41' E 113°40'  
Track history (hours):
 
Tides and Currents Weather Stations Pressure Air Temp Water Temp Dewpoint Dewpoint Depression Visibility Wind Speed Wind Dir Waves Ship Positions

New Vision

Last reported at 2014-Nov-15 13:31 UTC. Time now 2014-Nov-23 18:48 UTC.
Position N 22°10' E 114°07'.
Warning: this ship's position is 8 days out of date.

Length 189 m; draft 6.2 m.

Type: Cargo ship. MMSI: 357764000.

Date/timePositionNaut miles runAvg speedWind from/ knotsBaromVisibWave heightAir tempDewpointWater temp
2014-Nov-15 13:31N 22°10' E 114°07'6 3.9
2014-Nov-15 12:03N 22°08' E 114°01'510.9
2014-Nov-15 11:33N 22°05' E 113°57'6 6.1
2014-Nov-15 10:33N 22°08' E 113°51'1212.1
2014-Nov-15 09:33N 22°19' E 113°48'1512.3
2014-Nov-15 08:20N 22°34' E 113°43'9 4.8
2014-Nov-15 06:30N 22°42' E 113°39'0 0.0
2014-Nov-15 05:18N 22°42' E 113°39'0 0.0
2014-Nov-15 04:06N 22°42' E 113°39'0 0.0
2014-Nov-14 19:12N 22°42' E 113°39'0 0.0
2014-Nov-14 18:18N 22°42' E 113°39'0 0.0
2014-Nov-14 17:30N 22°42' E 113°39'0 0.0
2014-Nov-14 16:12N 22°42' E 113°39'0 0.0
2014-Nov-14 15:24N 22°42' E 113°39'1 0.1
2014-Nov-14 03:03N 22°41' E 113°40'0 0.0
2014-Nov-13 21:33N 22°41' E 113°40'0 0.0
2014-Nov-13 20:21N 22°41' E 113°40'  
2014-Nov-11 08:27N 22°41' E 113°40'  
2014-Nov-09 03:18N 22°41' E 113°40'  

Dump ship's entire track history